sensor_id;sensor_type;location;lat;lon;timestamp;temperature;humidity
6536;DHT22;34330;52.08032700;5.40923460;2022-10-16T00:01:36;16.90;88.30
6536;DHT22;34330;52.08032700;5.40923460;2022-10-16T00:04:05;16.40;88.00
6536;DHT22;34330;52.08032700;5.40923460;2022-10-16T00:06:33;16.40;87.70
6536;DHT22;34330;52.08032700;5.40923460;2022-10-16T00:09:01;18.10;89.50
6536;DHT22;34330;52.08032700;5.40923460;2022-10-16T00:11:31;16.40;87.80
6536;DHT22;34330;52.08032700;5.40923460;2022-10-16T00:14:02;16.40;88.10
6536;DHT22;34330;52.08032700;5.40923460;2022-10-16T00:16:31;16.40;88.10
6536;DHT22;34330;52.08032700;5.40923460;2022-10-16T00:19:00;16.30;88.10
6536;DHT22;34330;52.08032700;5.40923460;2022-10-16T00:21:29;16.30;87.80
6536;DHT22;34330;52.08032700;5.40923460;2022-10-16T00:23:59;16.30;87.40
6536;DHT22;34330;52.08032700;5.40923460;2022-10-16T00:26:29;16.30;88.10
6536;DHT22;34330;52.08032700;5.40923460;2022-10-16T00:28:57;17.80;89.80
6536;DHT22;34330;52.08032700;5.40923460;2022-10-16T00:31:27;16.30;88.30
6536;DHT22;34330;52.08032700;5.40923460;2022-10-16T00:33:56;16.30;88.50
6536;DHT22;34330;52.08032700;5.40923460;2022-10-16T00:36:26;16.30;88.40
6536;DHT22;34330;52.08032700;5.40923460;2022-10-16T00:38:55;16.30;88.70
6536;DHT22;34330;52.08032700;5.40923460;2022-10-16T00:41:27;16.30;88.60
6536;DHT22;34330;52.08032700;5.40923460;2022-10-16T00:43:57;17.50;89.80
6536;DHT22;34330;52.08032700;5.40923460;2022-10-16T00:46:28;16.30;88.90
6536;DHT22;34330;52.08032700;5.40923460;2022-10-16T00:49:01;16.30;88.80
6536;DHT22;34330;52.08032700;5.40923460;2022-10-16T00:51:32;16.30;89.70
6536;DHT22;34330;52.08032700;5.40923460;2022-10-16T00:54:01;16.30;89.00
6536;DHT22;34330;52.08032700;5.40923460;2022-10-16T00:56:29;16.30;89.10
6536;DHT22;34330;52.08032700;5.40923460;2022-10-16T00:58:58;16.30;88.90
6536;DHT22;34330;52.08032700;5.40923460;2022-10-16T01:01:28;16.30;89.20
6536;DHT22;34330;52.08032700;5.40923460;2022-10-16T01:03:56;16.40;89.30
6536;DHT22;34330;52.08032700;5.40923460;2022-10-16T01:06:31;14.10;86.90
6536;DHT22;34330;52.08032700;5.40923460;2022-10-16T01:09:11;16.40;89.50
6536;DHT22;34330;52.08032700;5.40923460;2022-10-16T01:11:45;16.40;89.50
6536;DHT22;34330;52.08032700;5.40923460;2022-10-16T01:14:21;16.40;89.60
6536;DHT22;34330;52.08032700;5.40923460;2022-10-16T01:16:53;16.40;89.60
6536;DHT22;34330;52.08032700;5.40923460;2022-10-16T01:19:32;16.40;89.60
6536;DHT22;34330;52.08032700;5.40923460;2022-10-16T01:22:02;16.40;89.70
6536;DHT22;34330;52.08032700;5.40923460;2022-10-16T01:24:36;16.50;89.70
6536;DHT22;34330;52.08032700;5.40923460;2022-10-16T01:27:09;16.50;89.70
6536;DHT22;34330;52.08032700;5.40923460;2022-10-16T01:29:43;16.50;89.90
6536;DHT22;34330;52.08032700;5.40923460;2022-10-16T01:32:17;16.50;89.90
6536;DHT22;34330;52.08032700;5.40923460;2022-10-16T01:34:50;16.60;89.90
6536;DHT22;34330;52.08032700;5.40923460;2022-10-16T01:37:25;16.60;89.90
6536;DHT22;34330;52.08032700;5.40923460;2022-10-16T01:39:59;16.60;90.00
6536;DHT22;34330;52.08032700;5.40923460;2022-10-16T01:42:34;16.60;89.90
6536;DHT22;34330;52.08032700;5.40923460;2022-10-16T01:45:05;16.60;89.90
6536;DHT22;34330;52.08032700;5.40923460;2022-10-16T01:47:35;16.70;89.90
6536;DHT22;34330;52.08032700;5.40923460;2022-10-16T01:50:05;16.60;89.80
6536;DHT22;34330;52.08032700;5.40923460;2022-10-16T01:52:37;16.60;89.80
6536;DHT22;34330;52.08032700;5.40923460;2022-10-16T01:55:06;16.60;89.70
6536;DHT22;34330;52.08032700;5.40923460;2022-10-16T01:57:41;16.60;89.80
6536;DHT22;34330;52.08032700;5.40923460;2022-10-16T02:00:13;16.70;89.90
6536;DHT22;34330;52.08032700;5.40923460;2022-10-16T02:02:45;16.70;89.80
6536;DHT22;34330;52.08032700;5.40923460;2022-10-16T02:05:18;16.70;89.90
6536;DHT22;34330;52.08032700;5.40923460;2022-10-16T02:07:47;16.70;89.90
6536;DHT22;34330;52.08032700;5.40923460;2022-10-16T02:10:15;19.40;91.20
6536;DHT22;34330;52.08032700;5.40923460;2022-10-16T02:12:49;16.70;89.70
6536;DHT22;34330;52.08032700;5.40923460;2022-10-16T02:15:18;16.70;90.00
6536;DHT22;34330;52.08032700;5.40923460;2022-10-16T02:17:46;16.70;89.80
6536;DHT22;34330;52.08032700;5.40923460;2022-10-16T02:20:14;16.70;89.70
6536;DHT22;34330;52.08032700;5.40923460;2022-10-16T02:22:45;16.70;89.70
6536;DHT22;34330;52.08032700;5.40923460;2022-10-16T02:25:19;16.70;89.90
6536;DHT22;34330;52.08032700;5.40923460;2022-10-16T02:27:57;16.70;90.00
6536;DHT22;34330;52.08032700;5.40923460;2022-10-16T02:30:28;16.70;90.00
6536;DHT22;34330;52.08032700;5.40923460;2022-10-16T02:32:58;19.50;91.20
6536;DHT22;34330;52.08032700;5.40923460;2022-10-16T02:35:28;17.30;90.20
6536;DHT22;34330;52.08032700;5.40923460;2022-10-16T02:37:57;16.70;90.00
6536;DHT22;34330;52.08032700;5.40923460;2022-10-16T02:40:26;16.70;90.00
6536;DHT22;34330;52.08032700;5.40923460;2022-10-16T02:42:56;18.00;90.80
6536;DHT22;34330;52.08032700;5.40923460;2022-10-16T02:45:24;16.60;90.20
6536;DHT22;34330;52.08032700;5.40923460;2022-10-16T02:47:52;16.60;90.10
6536;DHT22;34330;52.08032700;5.40923460;2022-10-16T02:50:20;16.60;90.50
6536;DHT22;34330;52.08032700;5.40923460;2022-10-16T02:52:48;16.60;90.00
6536;DHT22;34330;52.08032700;5.40923460;2022-10-16T02:55:16;16.60;90.10
6536;DHT22;34330;52.08032700;5.40923460;2022-10-16T02:57:44;16.60;90.00
6536;DHT22;34330;52.08032700;5.40923460;2022-10-16T03:00:16;16.60;90.00
6536;DHT22;34330;52.08032700;5.40923460;2022-10-16T03:02:44;16.60;90.10
6536;DHT22;34330;52.08032700;5.40923460;2022-10-16T03:05:13;16.60;90.00
6536;DHT22;34330;52.08032700;5.40923460;2022-10-16T03:07:42;16.60;90.20
6536;DHT22;34330;52.08032700;5.40923460;2022-10-16T03:10:10;16.60;90.10
6536;DHT22;34330;52.08032700;5.40923460;2022-10-16T03:12:37;16.60;90.10
6536;DHT22;34330;52.08032700;5.40923460;2022-10-16T03:15:06;16.60;90.20
6536;DHT22;34330;52.08032700;5.40923460;2022-10-16T03:17:36;16.60;90.30
6536;DHT22;34330;52.08032700;5.40923460;2022-10-16T03:20:04;16.60;90.10
6536;DHT22;34330;52.08032700;5.40923460;2022-10-16T03:22:32;16.50;90.30
6536;DHT22;34330;52.08032700;5.40923460;2022-10-16T03:25:00;19.30;91.40
6536;DHT22;34330;52.08032700;5.40923460;2022-10-16T03:27:28;16.50;90.20
6536;DHT22;34330;52.08032700;5.40923460;2022-10-16T03:29:56;16.50;90.20
6536;DHT22;34330;52.08032700;5.40923460;2022-10-16T03:32:24;16.50;90.20
6536;DHT22;34330;52.08032700;5.40923460;2022-10-16T03:34:53;16.50;90.30
6536;DHT22;34330;52.08032700;5.40923460;2022-10-16T03:37:23;16.50;90.30
6536;DHT22;34330;52.08032700;5.40923460;2022-10-16T03:39:51;16.50;90.30
6536;DHT22;34330;52.08032700;5.40923460;2022-10-16T03:42:20;16.50;90.40
6536;DHT22;34330;52.08032700;5.40923460;2022-10-16T03:44:47;16.50;90.40
6536;DHT22;34330;52.08032700;5.40923460;2022-10-16T03:47:18;16.40;90.30
6536;DHT22;34330;52.08032700;5.40923460;2022-10-16T03:49:48;16.50;90.40
6536;DHT22;34330;52.08032700;5.40923460;2022-10-16T03:52:17;16.40;90.30
6536;DHT22;34330;52.08032700;5.40923460;2022-10-16T03:54:45;16.40;90.30
6536;DHT22;34330;52.08032700;5.40923460;2022-10-16T03:57:13;16.40;90.30
6536;DHT22;34330;52.08032700;5.40923460;2022-10-16T03:59:41;16.40;90.40
6536;DHT22;34330;52.08032700;5.40923460;2022-10-16T04:02:09;16.40;90.40
6536;DHT22;34330;52.08032700;5.40923460;2022-10-16T04:04:37;16.40;90.40
6536;DHT22;34330;52.08032700;5.40923460;2022-10-16T04:07:05;16.40;90.30
6536;DHT22;34330;52.08032700;5.40923460;2022-10-16T04:09:34;16.30;90.40
6536;DHT22;34330;52.08032700;5.40923460;2022-10-16T04:12:02;16.30;90.40
6536;DHT22;34330;52.08032700;5.40923460;2022-10-16T04:14:30;16.30;90.40
6536;DHT22;34330;52.08032700;5.40923460;2022-10-16T04:16:58;16.30;90.40
6536;DHT22;34330;52.08032700;5.40923460;2022-10-16T04:19:26;16.30;90.50
6536;DHT22;34330;52.08032700;5.40923460;2022-10-16T04:21:55;16.30;90.50
6536;DHT22;34330;52.08032700;5.40923460;2022-10-16T04:24:23;16.30;90.50
6536;DHT22;34330;52.08032700;5.40923460;2022-10-16T04:26:52;16.20;90.50
6536;DHT22;34330;52.08032700;5.40923460;2022-10-16T04:29:20;16.20;90.50
6536;DHT22;34330;52.08032700;5.40923460;2022-10-16T04:31:48;16.20;90.50
6536;DHT22;34330;52.08032700;5.40923460;2022-10-16T04:34:16;18.60;91.60
6536;DHT22;34330;52.08032700;5.40923460;2022-10-16T04:36:44;16.20;90.60
6536;DHT22;34330;52.08032700;5.40923460;2022-10-16T04:39:14;16.20;90.70
6536;DHT22;34330;52.08032700;5.40923460;2022-10-16T04:41:42;16.20;90.60
6536;DHT22;34330;52.08032700;5.40923460;2022-10-16T04:44:11;16.20;90.60
6536;DHT22;34330;52.08032700;5.40923460;2022-10-16T04:46:39;16.10;90.60
6536;DHT22;34330;52.08032700;5.40923460;2022-10-16T04:49:07;16.10;90.60
6536;DHT22;34330;52.08032700;5.40923460;2022-10-16T04:51:35;16.10;90.70
6536;DHT22;34330;52.08032700;5.40923460;2022-10-16T04:54:03;16.10;90.70
6536;DHT22;34330;52.08032700;5.40923460;2022-10-16T04:56:31;16.10;90.70
6536;DHT22;34330;52.08032700;5.40923460;2022-10-16T04:58:59;16.10;90.80
6536;DHT22;34330;52.08032700;5.40923460;2022-10-16T05:01:28;16.40;91.00
6536;DHT22;34330;52.08032700;5.40923460;2022-10-16T05:03:56;16.10;90.80
6536;DHT22;34330;52.08032700;5.40923460;2022-10-16T05:06:23;16.10;90.80
6536;DHT22;34330;52.08032700;5.40923460;2022-10-16T05:08:51;16.10;90.80
6536;DHT22;34330;52.08032700;5.40923460;2022-10-16T05:11:19;16.10;90.80
6536;DHT22;34330;52.08032700;5.40923460;2022-10-16T05:13:47;16.10;90.80
6536;DHT22;34330;52.08032700;5.40923460;2022-10-16T05:16:19;16.10;90.80
6536;DHT22;34330;52.08032700;5.40923460;2022-10-16T05:18:48;19.10;92.10
6536;DHT22;34330;52.08032700;5.40923460;2022-10-16T05:21:21;16.00;90.80
6536;DHT22;34330;52.08032700;5.40923460;2022-10-16T05:23:50;16.10;90.90
6536;DHT22;34330;52.08032700;5.40923460;2022-10-16T05:26:17;16.00;90.80
6536;DHT22;34330;52.08032700;5.40923460;2022-10-16T05:28:45;16.00;90.80
6536;DHT22;34330;52.08032700;5.40923460;2022-10-16T05:31:13;16.00;90.70
6536;DHT22;34330;52.08032700;5.40923460;2022-10-16T05:33:41;16.00;90.80
6536;DHT22;34330;52.08032700;5.40923460;2022-10-16T05:36:12;17.40;91.50
6536;DHT22;34330;52.08032700;5.40923460;2022-10-16T05:38:39;16.00;90.90
6536;DHT22;34330;52.08032700;5.40923460;2022-10-16T05:41:07;15.90;90.90
6536;DHT22;34330;52.08032700;5.40923460;2022-10-16T05:43:35;15.90;90.90
6536;DHT22;34330;52.08032700;5.40923460;2022-10-16T05:46:05;18.10;92.00
6536;DHT22;34330;52.08032700;5.40923460;2022-10-16T05:48:33;15.90;91.20
6536;DHT22;34330;52.08032700;5.40923460;2022-10-16T05:51:03;15.90;91.10
6536;DHT22;34330;52.08032700;5.40923460;2022-10-16T05:53:33;15.90;91.60
6536;DHT22;34330;52.08032700;5.40923460;2022-10-16T05:56:02;15.90;91.30
6536;DHT22;34330;52.08032700;5.40923460;2022-10-16T05:58:32;15.90;91.20
6536;DHT22;34330;52.08032700;5.40923460;2022-10-16T06:01:02;15.80;91.60
6536;DHT22;34330;52.08032700;5.40923460;2022-10-16T06:03:31;15.90;91.80
6536;DHT22;34330;52.08032700;5.40923460;2022-10-16T06:05:59;15.90;91.60
6536;DHT22;34330;52.08032700;5.40923460;2022-10-16T06:08:26;15.90;91.90
6536;DHT22;34330;52.08032700;5.40923460;2022-10-16T06:11:02;16.00;91.50
6536;DHT22;34330;52.08032700;5.40923460;2022-10-16T06:13:31;16.00;91.60
6536;DHT22;34330;52.08032700;5.40923460;2022-10-16T06:16:00;16.00;91.50
6536;DHT22;34330;52.08032700;5.40923460;2022-10-16T06:18:29;16.00;91.60
6536;DHT22;34330;52.08032700;5.40923460;2022-10-16T06:20:57;18.00;92.30
6536;DHT22;34330;52.08032700;5.40923460;2022-10-16T06:23:25;16.10;91.40
6536;DHT22;34330;52.08032700;5.40923460;2022-10-16T06:26:05;16.10;91.60
6536;DHT22;34330;52.08032700;5.40923460;2022-10-16T06:28:34;16.10;91.60
6536;DHT22;34330;52.08032700;5.40923460;2022-10-16T06:31:03;16.10;91.50
6536;DHT22;34330;52.08032700;5.40923460;2022-10-16T06:33:34;16.10;91.50
6536;DHT22;34330;52.08032700;5.40923460;2022-10-16T06:36:03;16.20;91.80
6536;DHT22;34330;52.08032700;5.40923460;2022-10-16T06:38:32;16.20;91.60
6536;DHT22;34330;52.08032700;5.40923460;2022-10-16T06:41:00;16.20;91.60
6536;DHT22;34330;52.08032700;5.40923460;2022-10-16T06:43:30;16.20;91.60
6536;DHT22;34330;52.08032700;5.40923460;2022-10-16T06:46:00;16.20;91.60
6536;DHT22;34330;52.08032700;5.40923460;2022-10-16T06:48:28;16.20;91.40
6536;DHT22;34330;52.08032700;5.40923460;2022-10-16T06:50:57;18.90;92.70
6536;DHT22;34330;52.08032700;5.40923460;2022-10-16T06:53:27;16.30;91.70
6536;DHT22;34330;52.08032700;5.40923460;2022-10-16T06:55:55;16.30;91.60
6536;DHT22;34330;52.08032700;5.40923460;2022-10-16T06:58:23;16.30;91.50
6536;DHT22;34330;52.08032700;5.40923460;2022-10-16T07:00:56;16.30;91.50
6536;DHT22;34330;52.08032700;5.40923460;2022-10-16T07:03:24;16.30;91.50
6536;DHT22;34330;52.08032700;5.40923460;2022-10-16T07:05:52;16.30;91.50
6536;DHT22;34330;52.08032700;5.40923460;2022-10-16T07:08:20;16.40;91.50
6536;DHT22;34330;52.08032700;5.40923460;2022-10-16T07:10:48;16.40;91.50
6536;DHT22;34330;52.08032700;5.40923460;2022-10-16T07:13:16;16.40;91.50
6536;DHT22;34330;52.08032700;5.40923460;2022-10-16T07:15:44;16.40;91.50
6536;DHT22;34330;52.08032700;5.40923460;2022-10-16T07:18:13;16.40;91.60
6536;DHT22;34330;52.08032700;5.40923460;2022-10-16T07:20:41;16.50;91.60
6536;DHT22;34330;52.08032700;5.40923460;2022-10-16T07:23:09;16.50;91.60
6536;DHT22;34330;52.08032700;5.40923460;2022-10-16T07:25:37;19.50;92.90
6536;DHT22;34330;52.08032700;5.40923460;2022-10-16T07:28:05;16.50;91.60
6536;DHT22;34330;52.08032700;5.40923460;2022-10-16T07:30:35;16.50;91.50
6536;DHT22;34330;52.08032700;5.40923460;2022-10-16T07:33:03;16.60;91.90
6536;DHT22;34330;52.08032700;5.40923460;2022-10-16T07:35:32;16.60;91.60
6536;DHT22;34330;52.08032700;5.40923460;2022-10-16T07:38:00;16.60;91.60
6536;DHT22;34330;52.08032700;5.40923460;2022-10-16T07:40:28;18.00;92.30
6536;DHT22;34330;52.08032700;5.40923460;2022-10-16T07:42:56;16.60;91.70
6536;DHT22;34330;52.08032700;5.40923460;2022-10-16T07:45:24;16.70;91.80
6536;DHT22;34330;52.08032700;5.40923460;2022-10-16T07:47:52;16.70;91.70
6536;DHT22;34330;52.08032700;5.40923460;2022-10-16T07:50:20;16.70;91.70
6536;DHT22;34330;52.08032700;5.40923460;2022-10-16T07:52:49;16.70;91.70
6536;DHT22;34330;52.08032700;5.40923460;2022-10-16T07:55:17;16.70;91.70
6536;DHT22;34330;52.08032700;5.40923460;2022-10-16T07:57:47;16.80;91.60
6536;DHT22;34330;52.08032700;5.40923460;2022-10-16T08:00:15;19.20;92.70
6536;DHT22;34330;52.08032700;5.40923460;2022-10-16T08:02:43;16.80;91.60
6536;DHT22;34330;52.08032700;5.40923460;2022-10-16T08:05:11;16.80;91.60
6536;DHT22;34330;52.08032700;5.40923460;2022-10-16T08:07:39;16.80;91.60
6536;DHT22;34330;52.08032700;5.40923460;2022-10-16T08:10:14;16.80;91.60
6536;DHT22;34330;52.08032700;5.40923460;2022-10-16T08:12:43;16.90;91.80
6536;DHT22;34330;52.08032700;5.40923460;2022-10-16T08:15:11;16.90;91.70
6536;DHT22;34330;52.08032700;5.40923460;2022-10-16T08:17:39;17.00;91.70
6536;DHT22;34330;52.08032700;5.40923460;2022-10-16T08:20:08;17.00;91.60
6536;DHT22;34330;52.08032700;5.40923460;2022-10-16T08:22:37;17.00;91.70
6536;DHT22;34330;52.08032700;5.40923460;2022-10-16T08:25:05;17.00;91.50
6536;DHT22;34330;52.08032700;5.40923460;2022-10-16T08:27:34;17.10;91.70
6536;DHT22;34330;52.08032700;5.40923460;2022-10-16T08:30:03;19.10;92.40
6536;DHT22;34330;52.08032700;5.40923460;2022-10-16T08:32:31;17.10;91.50
6536;DHT22;34330;52.08032700;5.40923460;2022-10-16T08:34:59;17.20;91.50
6536;DHT22;34330;52.08032700;5.40923460;2022-10-16T08:37:29;17.20;91.40
6536;DHT22;34330;52.08032700;5.40923460;2022-10-16T08:39:57;17.30;91.40
6536;DHT22;34330;52.08032700;5.40923460;2022-10-16T08:42:42;17.10;91.20
6536;DHT22;34330;52.08032700;5.40923460;2022-10-16T08:45:23;17.40;91.40
6536;DHT22;34330;52.08032700;5.40923460;2022-10-16T08:48:05;17.40;91.40
6536;DHT22;34330;52.08032700;5.40923460;2022-10-16T08:50:39;17.50;91.40
6536;DHT22;34330;52.08032700;5.40923460;2022-10-16T08:53:14;17.50;91.50
6536;DHT22;34330;52.08032700;5.40923460;2022-10-16T08:55:46;17.60;91.20
6536;DHT22;34330;52.08032700;5.40923460;2022-10-16T08:58:18;17.60;91.20
6536;DHT22;34330;52.08032700;5.40923460;2022-10-16T09:00:49;17.70;91.20
6536;DHT22;34330;52.08032700;5.40923460;2022-10-16T09:03:26;17.80;91.10
6536;DHT22;34330;52.08032700;5.40923460;2022-10-16T09:06:10;17.80;91.00
6536;DHT22;34330;52.08032700;5.40923460;2022-10-16T09:08:51;17.90;91.00
6536;DHT22;34330;52.08032700;5.40923460;2022-10-16T09:11:29;17.90;91.00
6536;DHT22;34330;52.08032700;5.40923460;2022-10-16T09:14:13;18.00;90.80
6536;DHT22;34330;52.08032700;5.40923460;2022-10-16T09:16:51;18.00;90.90
6536;DHT22;34330;52.08032700;5.40923460;2022-10-16T09:19:25;18.10;90.90
6536;DHT22;34330;52.08032700;5.40923460;2022-10-16T09:21:59;18.10;90.70
6536;DHT22;34330;52.08032700;5.40923460;2022-10-16T09:24:30;18.20;90.70
6536;DHT22;34330;52.08032700;5.40923460;2022-10-16T09:26:57;18.20;90.60
6536;DHT22;34330;52.08032700;5.40923460;2022-10-16T09:29:27;18.30;90.60
6536;DHT22;34330;52.08032700;5.40923460;2022-10-16T09:31:57;21.50;91.90
6536;DHT22;34330;52.08032700;5.40923460;2022-10-16T09:34:37;20.70;91.60
6536;DHT22;34330;52.08032700;5.40923460;2022-10-16T09:37:13;18.40;90.60
6536;DHT22;34330;52.08032700;5.40923460;2022-10-16T09:39:45;18.50;90.60
6536;DHT22;34330;52.08032700;5.40923460;2022-10-16T09:42:16;18.50;90.50
6536;DHT22;34330;52.08032700;5.40923460;2022-10-16T09:44:48;18.60;90.50
6536;DHT22;34330;52.08032700;5.40923460;2022-10-16T09:47:20;18.70;90.50
6536;DHT22;34330;52.08032700;5.40923460;2022-10-16T09:49:51;18.70;90.20
6536;DHT22;34330;52.08032700;5.40923460;2022-10-16T09:52:21;18.70;90.20
6536;DHT22;34330;52.08032700;5.40923460;2022-10-16T09:54:51;18.80;90.10
6536;DHT22;34330;52.08032700;5.40923460;2022-10-16T09:57:20;18.90;90.00
6536;DHT22;34330;52.08032700;5.40923460;2022-10-16T09:59:51;18.80;89.20
6536;DHT22;34330;52.08032700;5.40923460;2022-10-16T10:02:23;18.90;88.80
6536;DHT22;34330;52.08032700;5.40923460;2022-10-16T10:04:55;18.90;88.90
6536;DHT22;34330;52.08032700;5.40923460;2022-10-16T10:07:26;18.90;88.60
6536;DHT22;34330;52.08032700;5.40923460;2022-10-16T10:09:56;19.00;88.70
6536;DHT22;34330;52.08032700;5.40923460;2022-10-16T10:12:26;19.00;88.60
6536;DHT22;34330;52.08032700;5.40923460;2022-10-16T10:14:58;19.00;88.50
6536;DHT22;34330;52.08032700;5.40923460;2022-10-16T10:17:31;19.00;88.60
6536;DHT22;34330;52.08032700;5.40923460;2022-10-16T10:20:00;19.00;88.00
6536;DHT22;34330;52.08032700;5.40923460;2022-10-16T10:22:39;19.00;87.90
6536;DHT22;34330;52.08032700;5.40923460;2022-10-16T10:25:19;20.40;89.30
6536;DHT22;34330;52.08032700;5.40923460;2022-10-16T10:28:01;19.00;87.90
6536;DHT22;34330;52.08032700;5.40923460;2022-10-16T10:30:41;19.00;87.50
6536;DHT22;34330;52.08032700;5.40923460;2022-10-16T10:33:25;19.00;87.40
6536;DHT22;34330;52.08032700;5.40923460;2022-10-16T10:36:05;19.10;87.00
6536;DHT22;34330;52.08032700;5.40923460;2022-10-16T10:38:41;19.00;86.60
6536;DHT22;34330;52.08032700;5.40923460;2022-10-16T10:41:24;19.10;87.10
6536;DHT22;34330;52.08032700;5.40923460;2022-10-16T10:44:03;19.10;86.40
6536;DHT22;34330;52.08032700;5.40923460;2022-10-16T10:46:42;19.10;86.70
6536;DHT22;34330;52.08032700;5.40923460;2022-10-16T10:49:24;21.60;88.50
6536;DHT22;34330;52.08032700;5.40923460;2022-10-16T10:52:00;19.20;86.10
6536;DHT22;34330;52.08032700;5.40923460;2022-10-16T10:54:35;19.30;86.00
6536;DHT22;34330;52.08032700;5.40923460;2022-10-16T10:57:10;19.30;85.60
6536;DHT22;34330;52.08032700;5.40923460;2022-10-16T10:59:57;19.40;85.70
6536;DHT22;34330;52.08032700;5.40923460;2022-10-16T11:02:35;19.80;85.30
6536;DHT22;34330;52.08032700;5.40923460;2022-10-16T11:05:21;19.50;84.70
6536;DHT22;34330;52.08032700;5.40923460;2022-10-16T11:07:57;19.50;84.10
6536;DHT22;34330;52.08032700;5.40923460;2022-10-16T11:10:28;19.60;84.40
6536;DHT22;34330;52.08032700;5.40923460;2022-10-16T11:13:03;19.60;84.20
6536;DHT22;34330;52.08032700;5.40923460;2022-10-16T11:15:39;21.70;86.40
6536;DHT22;34330;52.08032700;5.40923460;2022-10-16T11:18:16;22.00;86.20
6536;DHT22;34330;52.08032700;5.40923460;2022-10-16T11:20:50;19.70;83.30
6536;DHT22;34330;52.08032700;5.40923460;2022-10-16T11:23:25;19.70;83.80
6536;DHT22;34330;52.08032700;5.40923460;2022-10-16T11:25:56;19.70;83.90
6536;DHT22;34330;52.08032700;5.40923460;2022-10-16T11:28:29;19.70;84.00
6536;DHT22;34330;52.08032700;5.40923460;2022-10-16T11:31:02;19.80;84.20
6536;DHT22;34330;52.08032700;5.40923460;2022-10-16T11:33:37;19.90;83.50
6536;DHT22;34330;52.08032700;5.40923460;2022-10-16T11:36:12;19.90;82.50
6536;DHT22;34330;52.08032700;5.40923460;2022-10-16T11:38:47;20.00;81.60
6536;DHT22;34330;52.08032700;5.40923460;2022-10-16T11:41:24;20.00;81.00
6536;DHT22;34330;52.08032700;5.40923460;2022-10-16T11:44:12;20.00;80.70
6536;DHT22;34330;52.08032700;5.40923460;2022-10-16T11:46:46;19.90;79.60
6536;DHT22;34330;52.08032700;5.40923460;2022-10-16T11:49:31;19.90;79.50
6536;DHT22;34330;52.08032700;5.40923460;2022-10-16T11:52:07;19.90;78.80
6536;DHT22;34330;52.08032700;5.40923460;2022-10-16T11:54:39;19.90;78.80
6536;DHT22;34330;52.08032700;5.40923460;2022-10-16T11:57:12;19.80;79.00
6536;DHT22;34330;52.08032700;5.40923460;2022-10-16T11:59:45;19.70;79.20
6536;DHT22;34330;52.08032700;5.40923460;2022-10-16T12:02:36;19.70;79.50
6536;DHT22;34330;52.08032700;5.40923460;2022-10-16T12:05:16;19.70;79.60
6536;DHT22;34330;52.08032700;5.40923460;2022-10-16T12:07:51;19.70;80.10
6536;DHT22;34330;52.08032700;5.40923460;2022-10-16T12:10:21;19.70;79.80
6536;DHT22;34330;52.08032700;5.40923460;2022-10-16T12:12:53;19.80;79.90
6536;DHT22;34330;52.08032700;5.40923460;2022-10-16T12:15:25;19.80;79.70
6536;DHT22;34330;52.08032700;5.40923460;2022-10-16T12:18:24;19.80;77.70
6536;DHT22;34330;52.08032700;5.40923460;2022-10-16T12:20:57;19.80;77.40
6536;DHT22;34330;52.08032700;5.40923460;2022-10-16T12:23:32;19.90;77.80
6536;DHT22;34330;52.08032700;5.40923460;2022-10-16T12:26:01;20.00;77.40
6536;DHT22;34330;52.08032700;5.40923460;2022-10-16T12:28:30;20.10;76.90
6536;DHT22;34330;52.08032700;5.40923460;2022-10-16T12:31:01;20.20;77.40
6536;DHT22;34330;52.08032700;5.40923460;2022-10-16T12:33:31;20.30;76.50
6536;DHT22;34330;52.08032700;5.40923460;2022-10-16T12:36:04;20.40;76.90
6536;DHT22;34330;52.08032700;5.40923460;2022-10-16T12:38:38;20.40;75.50
6536;DHT22;34330;52.08032700;5.40923460;2022-10-16T12:41:24;20.50;75.30
6536;DHT22;34330;52.08032700;5.40923460;2022-10-16T12:43:52;20.50;74.00
6536;DHT22;34330;52.08032700;5.40923460;2022-10-16T12:46:35;20.60;75.30
6536;DHT22;34330;52.08032700;5.40923460;2022-10-16T12:49:21;20.60;75.20
6536;DHT22;34330;52.08032700;5.40923460;2022-10-16T12:51:52;20.70;75.30
6536;DHT22;34330;52.08032700;5.40923460;2022-10-16T12:54:22;20.70;75.70
6536;DHT22;34330;52.08032700;5.40923460;2022-10-16T12:57:03;20.80;76.40
6536;DHT22;34330;52.08032700;5.40923460;2022-10-16T12:59:40;20.80;76.30
6536;DHT22;34330;52.08032700;5.40923460;2022-10-16T13:02:37;20.90;76.20
6536;DHT22;34330;52.08032700;5.40923460;2022-10-16T13:05:29;20.90;75.80
6536;DHT22;34330;52.08032700;5.40923460;2022-10-16T13:08:13;20.90;75.80
6536;DHT22;34330;52.08032700;5.40923460;2022-10-16T13:10:54;21.00;75.80
6536;DHT22;34330;52.08032700;5.40923460;2022-10-16T13:13:38;21.10;76.70
6536;DHT22;34330;52.08032700;5.40923460;2022-10-16T13:16:17;21.20;76.70
6536;DHT22;34330;52.08032700;5.40923460;2022-10-16T13:18:57;21.20;76.30
6536;DHT22;34330;52.08032700;5.40923460;2022-10-16T13:21:38;21.30;76.60
6536;DHT22;34330;52.08032700;5.40923460;2022-10-16T13:24:23;21.40;75.30
6536;DHT22;34330;52.08032700;5.40923460;2022-10-16T13:26:57;21.50;73.80
6536;DHT22;34330;52.08032700;5.40923460;2022-10-16T13:29:30;21.50;73.40
6536;DHT22;34330;52.08032700;5.40923460;2022-10-16T13:31:59;21.60;73.80
6536;DHT22;34330;52.08032700;5.40923460;2022-10-16T13:34:28;21.60;73.60
6536;DHT22;34330;52.08032700;5.40923460;2022-10-16T13:36:56;21.60;73.70
6536;DHT22;34330;52.08032700;5.40923460;2022-10-16T13:39:27;21.60;72.70
6536;DHT22;34330;52.08032700;5.40923460;2022-10-16T13:42:02;21.60;72.80
6536;DHT22;34330;52.08032700;5.40923460;2022-10-16T13:44:38;21.60;72.70
6536;DHT22;34330;52.08032700;5.40923460;2022-10-16T13:47:18;21.50;72.60
6536;DHT22;34330;52.08032700;5.40923460;2022-10-16T13:49:59;21.50;72.20
6536;DHT22;34330;52.08032700;5.40923460;2022-10-16T13:52:28;21.50;71.80
6536;DHT22;34330;52.08032700;5.40923460;2022-10-16T13:54:57;21.50;72.60
6536;DHT22;34330;52.08032700;5.40923460;2022-10-16T13:57:28;21.40;71.80
6536;DHT22;34330;52.08032700;5.40923460;2022-10-16T13:59:56;21.10;71.70